sensor_id;sensor_type;location;lat;lon;timestamp;pressure;altitude;pressure_sealevel;temperature;humidity
19526;BME280;9907;42.676;26.348;2023-06-24T00:00:45;99780.94;;;21.63;70.90
19526;BME280;9907;42.676;26.348;2023-06-24T00:03:11;99781.41;;;21.47;71.89
19526;BME280;9907;42.676;26.348;2023-06-24T00:05:42;99774.72;;;21.69;70.62
19526;BME280;9907;42.676;26.348;2023-06-24T00:08:08;99784.09;;;21.47;71.37
19526;BME280;9907;42.676;26.348;2023-06-24T00:10:33;99787.00;;;21.39;72.87
19526;BME280;9907;42.676;26.348;2023-06-24T00:12:59;99786.13;;;21.18;73.76
19526;BME280;9907;42.676;26.348;2023-06-24T00:15:28;99779.09;;;21.44;71.81
19526;BME280;9907;42.676;26.348;2023-06-24T00:17:53;99774.09;;;21.34;71.82
19526;BME280;9907;42.676;26.348;2023-06-24T00:20:19;99782.81;;;21.29;72.46
19526;BME280;9907;42.676;26.348;2023-06-24T00:22:45;99773.28;;;21.20;72.99
19526;BME280;9907;42.676;26.348;2023-06-24T00:25:14;99775.78;;;21.28;72.92
19526;BME280;9907;42.676;26.348;2023-06-24T00:27:41;99772.88;;;21.23;73.34
19526;BME280;9907;42.676;26.348;2023-06-24T00:30:07;99766.22;;;21.19;72.75
19526;BME280;9907;42.676;26.348;2023-06-24T00:32:33;99756.81;;;21.09;73.92
19526;BME280;9907;42.676;26.348;2023-06-24T00:34:58;99763.03;;;20.96;74.47
19526;BME280;9907;42.676;26.348;2023-06-24T00:37:25;99767.81;;;21.07;73.78
19526;BME280;9907;42.676;26.348;2023-06-24T00:39:50;99756.19;;;20.87;75.07
19526;BME280;9907;42.676;26.348;2023-06-24T00:42:17;99748.31;;;20.99;74.33
19526;BME280;9907;42.676;26.348;2023-06-24T00:44:42;99750.16;;;20.98;74.35
19526;BME280;9907;42.676;26.348;2023-06-24T00:47:08;99746.47;;;21.12;72.63
19526;BME280;9907;42.676;26.348;2023-06-24T00:49:34;99746.88;;;21.09;72.84
19526;BME280;9907;42.676;26.348;2023-06-24T00:51:59;99741.66;;;21.01;73.44
19526;BME280;9907;42.676;26.348;2023-06-24T00:54:26;99747.84;;;20.82;74.64
19526;BME280;9907;42.676;26.348;2023-06-24T00:56:56;99742.91;;;21.05;73.14
19526;BME280;9907;42.676;26.348;2023-06-24T00:59:22;99743.34;;;21.15;72.17
19526;BME280;9907;42.676;26.348;2023-06-24T01:01:50;99742.50;;;21.08;71.46
19526;BME280;9907;42.676;26.348;2023-06-24T01:04:18;99744.63;;;21.13;72.10
19526;BME280;9907;42.676;26.348;2023-06-24T01:06:45;99746.25;;;21.14;71.36
19526;BME280;9907;42.676;26.348;2023-06-24T01:09:12;99738.59;;;21.17;70.89
19526;BME280;9907;42.676;26.348;2023-06-24T01:11:38;99734.66;;;21.13;71.09
19526;BME280;9907;42.676;26.348;2023-06-24T01:14:04;99740.25;;;21.12;70.91
19526;BME280;9907;42.676;26.348;2023-06-24T01:19:28;99730.81;;;20.68;72.88
19526;BME280;9907;42.676;26.348;2023-06-24T01:32:59;99735.78;;;20.58;72.38
19526;BME280;9907;42.676;26.348;2023-06-24T01:35:33;99729.56;;;20.64;72.12
19526;BME280;9907;42.676;26.348;2023-06-24T01:38:05;99732.03;;;20.66;71.63
19526;BME280;9907;42.676;26.348;2023-06-24T01:40:45;99721.44;;;20.58;72.61
19526;BME280;9907;42.676;26.348;2023-06-24T01:43:13;99720.81;;;20.56;71.82
19526;BME280;9907;42.676;26.348;2023-06-24T01:45:42;99727.03;;;20.63;71.95
19526;BME280;9907;42.676;26.348;2023-06-24T01:48:22;99719.19;;;20.61;71.33
19526;BME280;9907;42.676;26.348;2023-06-24T01:50:57;99720.34;;;20.39;71.66
19526;BME280;9907;42.676;26.348;2023-06-24T01:53:23;99729.91;;;20.48;71.72
19526;BME280;9907;42.676;26.348;2023-06-24T01:55:50;99724.09;;;20.51;71.34
19526;BME280;9907;42.676;26.348;2023-06-24T01:58:18;99732.41;;;20.50;70.18
19526;BME280;9907;42.676;26.348;2023-06-24T02:00:44;99730.75;;;20.49;69.74
19526;BME280;9907;42.676;26.348;2023-06-24T02:03:10;99728.63;;;20.37;69.64
19526;BME280;9907;42.676;26.348;2023-06-24T02:05:37;99729.34;;;20.18;71.48
19526;BME280;9907;42.676;26.348;2023-06-24T02:08:08;99740.97;;;20.19;71.19
19526;BME280;9907;42.676;26.348;2023-06-24T02:10:37;99732.59;;;20.01;71.76
19526;BME280;9907;42.676;26.348;2023-06-24T02:13:03;99735.38;;;20.14;71.19
19526;BME280;9907;42.676;26.348;2023-06-24T02:15:30;99735.88;;;20.37;70.19
19526;BME280;9907;42.676;26.348;2023-06-24T02:17:57;99727.97;;;20.29;69.70
19526;BME280;9907;42.676;26.348;2023-06-24T02:20:24;99732.28;;;20.23;69.79
19526;BME280;9907;42.676;26.348;2023-06-24T02:22:53;99735.88;;;20.30;69.57
19526;BME280;9907;42.676;26.348;2023-06-24T02:25:19;99742.28;;;20.29;68.48
19526;BME280;9907;42.676;26.348;2023-06-24T02:27:45;99743.56;;;20.33;68.56
19526;BME280;9907;42.676;26.348;2023-06-24T02:30:11;99741.81;;;20.26;68.58
19526;BME280;9907;42.676;26.348;2023-06-24T02:32:38;99745.22;;;20.34;68.22
19526;BME280;9907;42.676;26.348;2023-06-24T02:35:04;99748.22;;;20.18;68.44
19526;BME280;9907;42.676;26.348;2023-06-24T02:37:30;99745.69;;;20.10;68.22
19526;BME280;9907;42.676;26.348;2023-06-24T02:39:56;99740.25;;;19.97;70.48
19526;BME280;9907;42.676;26.348;2023-06-24T02:42:22;99762.50;;;19.78;70.48
19526;BME280;9907;42.676;26.348;2023-06-24T02:44:47;99754.69;;;19.83;70.84
19526;BME280;9907;42.676;26.348;2023-06-24T02:47:14;99747.91;;;19.93;69.26
19526;BME280;9907;42.676;26.348;2023-06-24T02:49:42;99760.78;;;19.98;67.76
19526;BME280;9907;42.676;26.348;2023-06-24T02:52:12;99755.41;;;19.98;68.00
19526;BME280;9907;42.676;26.348;2023-06-24T02:54:38;99767.16;;;19.90;70.25
19526;BME280;9907;42.676;26.348;2023-06-24T02:57:06;99754.97;;;19.95;69.46
19526;BME280;9907;42.676;26.348;2023-06-24T02:59:32;99764.75;;;20.02;67.90
19526;BME280;9907;42.676;26.348;2023-06-24T03:01:58;99763.53;;;20.11;67.37
19526;BME280;9907;42.676;26.348;2023-06-24T03:04:25;99753.84;;;20.23;67.38
19526;BME280;9907;42.676;26.348;2023-06-24T03:06:51;99760.38;;;20.01;68.13
19526;BME280;9907;42.676;26.348;2023-06-24T03:09:18;99757.69;;;20.01;66.64
19526;BME280;9907;42.676;26.348;2023-06-24T03:11:44;99762.06;;;20.02;67.79
19526;BME280;9907;42.676;26.348;2023-06-24T03:14:10;99764.94;;;20.01;66.70
19526;BME280;9907;42.676;26.348;2023-06-24T03:16:35;99776.56;;;20.01;66.82
19526;BME280;9907;42.676;26.348;2023-06-24T03:19:03;99759.53;;;20.01;66.23
19526;BME280;9907;42.676;26.348;2023-06-24T03:21:28;99772.97;;;19.87;68.23
19526;BME280;9907;42.676;26.348;2023-06-24T03:23:54;99768.41;;;19.88;66.92
19526;BME280;9907;42.676;26.348;2023-06-24T03:26:20;99765.53;;;19.96;67.53
19526;BME280;9907;42.676;26.348;2023-06-24T03:28:46;99769.34;;;20.15;66.80
19526;BME280;9907;42.676;26.348;2023-06-24T03:31:11;99768.25;;;20.37;65.65
19526;BME280;9907;42.676;26.348;2023-06-24T03:33:37;99759.41;;;20.56;66.34
19526;BME280;9907;42.676;26.348;2023-06-24T03:36:02;99762.41;;;20.87;64.99
19526;BME280;9907;42.676;26.348;2023-06-24T03:38:28;99765.16;;;21.14;64.32
19526;BME280;9907;42.676;26.348;2023-06-24T03:40:54;99766.41;;;21.11;64.84
19526;BME280;9907;42.676;26.348;2023-06-24T03:43:19;99772.88;;;21.23;63.84
19526;BME280;9907;42.676;26.348;2023-06-24T03:45:45;99778.25;;;21.36;64.35
19526;BME280;9907;42.676;26.348;2023-06-24T03:48:10;99777.44;;;21.43;63.39
19526;BME280;9907;42.676;26.348;2023-06-24T03:50:36;99778.06;;;21.31;64.07
19526;BME280;9907;42.676;26.348;2023-06-24T03:53:03;99774.94;;;21.28;63.96
19526;BME280;9907;42.676;26.348;2023-06-24T03:55:29;99771.00;;;21.37;62.58
19526;BME280;9907;42.676;26.348;2023-06-24T03:57:54;99768.69;;;21.41;62.20
19526;BME280;9907;42.676;26.348;2023-06-24T04:00:20;99774.53;;;21.38;62.55
19526;BME280;9907;42.676;26.348;2023-06-24T04:02:46;99774.09;;;21.41;63.70
19526;BME280;9907;42.676;26.348;2023-06-24T04:05:12;99768.91;;;21.46;62.59
19526;BME280;9907;42.676;26.348;2023-06-24T04:07:38;99771.81;;;21.51;63.03
19526;BME280;9907;42.676;26.348;2023-06-24T04:10:05;99773.06;;;21.55;63.39
19526;BME280;9907;42.676;26.348;2023-06-24T04:12:37;99774.50;;;21.70;61.19
19526;BME280;9907;42.676;26.348;2023-06-24T04:15:06;99770.97;;;21.83;62.38
19526;BME280;9907;42.676;26.348;2023-06-24T04:17:32;99769.03;;;22.10;61.19
19526;BME280;9907;42.676;26.348;2023-06-24T04:19:58;99772.94;;;22.33;62.68
19526;BME280;9907;42.676;26.348;2023-06-24T04:22:24;99774.97;;;22.45;62.13
19526;BME280;9907;42.676;26.348;2023-06-24T04:24:50;99781.56;;;22.68;59.75
19526;BME280;9907;42.676;26.348;2023-06-24T04:27:15;99787.81;;;23.00;58.61
19526;BME280;9907;42.676;26.348;2023-06-24T04:29:41;99789.72;;;23.31;58.06
19526;BME280;9907;42.676;26.348;2023-06-24T04:32:07;99790.09;;;23.35;58.51
19526;BME280;9907;42.676;26.348;2023-06-24T04:34:32;99791.88;;;23.47;57.39
19526;BME280;9907;42.676;26.348;2023-06-24T04:36:58;99788.13;;;23.73;57.15
19526;BME280;9907;42.676;26.348;2023-06-24T04:39:23;99794.50;;;24.03;54.93
19526;BME280;9907;42.676;26.348;2023-06-24T04:41:49;99792.84;;;24.27;54.18
19526;BME280;9907;42.676;26.348;2023-06-24T04:44:14;99793.34;;;24.36;54.01
19526;BME280;9907;42.676;26.348;2023-06-24T04:46:40;99792.91;;;24.57;53.20
19526;BME280;9907;42.676;26.348;2023-06-24T04:49:06;99790.53;;;24.79;52.55
19526;BME280;9907;42.676;26.348;2023-06-24T04:51:31;99796.63;;;24.92;51.47
19526;BME280;9907;42.676;26.348;2023-06-24T04:53:57;99793.38;;;25.13;51.38
19526;BME280;9907;42.676;26.348;2023-06-24T04:56:23;99790.38;;;25.33;51.83
19526;BME280;9907;42.676;26.348;2023-06-24T04:58:48;99793.75;;;25.58;50.23
19526;BME280;9907;42.676;26.348;2023-06-24T05:01:14;99791.31;;;25.57;50.87
19526;BME280;9907;42.676;26.348;2023-06-24T05:03:39;99787.53;;;25.81;49.35
19526;BME280;9907;42.676;26.348;2023-06-24T05:06:05;99787.88;;;25.85;48.25
19526;BME280;9907;42.676;26.348;2023-06-24T05:08:30;99793.66;;;26.11;47.64
19526;BME280;9907;42.676;26.348;2023-06-24T05:10:56;99792.34;;;26.14;46.82
19526;BME280;9907;42.676;26.348;2023-06-24T05:13:21;99793.19;;;26.38;46.99
19526;BME280;9907;42.676;26.348;2023-06-24T05:15:46;99786.91;;;26.49;45.76
19526;BME280;9907;42.676;26.348;2023-06-24T05:18:12;99783.06;;;27.01;45.36
19526;BME280;9907;42.676;26.348;2023-06-24T05:20:37;99789.38;;;26.90;44.46
19526;BME280;9907;42.676;26.348;2023-06-24T05:23:03;99786.81;;;27.12;41.97
19526;BME280;9907;42.676;26.348;2023-06-24T05:25:28;99777.50;;;27.25;40.66
19526;BME280;9907;42.676;26.348;2023-06-24T05:27:54;99779.25;;;27.31;39.49
19526;BME280;9907;42.676;26.348;2023-06-24T05:30:19;99787.47;;;27.47;41.45
19526;BME280;9907;42.676;26.348;2023-06-24T05:32:45;99790.59;;;27.73;41.84
19526;BME280;9907;42.676;26.348;2023-06-24T05:35:10;99785.75;;;27.75;41.30
19526;BME280;9907;42.676;26.348;2023-06-24T05:37:36;99800.50;;;27.95;40.57
19526;BME280;9907;42.676;26.348;2023-06-24T05:40:02;99786.94;;;28.17;40.56
19526;BME280;9907;42.676;26.348;2023-06-24T05:42:27;99790.00;;;28.21;40.09
19526;BME280;9907;42.676;26.348;2023-06-24T05:44:53;99784.63;;;28.26;40.13
19526;BME280;9907;42.676;26.348;2023-06-24T05:47:19;99788.28;;;28.15;40.17
19526;BME280;9907;42.676;26.348;2023-06-24T05:49:44;99787.91;;;28.49;39.81
19526;BME280;9907;42.676;26.348;2023-06-24T05:52:11;99791.47;;;28.50;38.87
19526;BME280;9907;42.676;26.348;2023-06-24T05:54:36;99789.47;;;28.84;38.23
19526;BME280;9907;42.676;26.348;2023-06-24T05:57:02;99793.53;;;28.60;38.27
19526;BME280;9907;42.676;26.348;2023-06-24T05:59:31;99794.53;;;28.75;39.14
19526;BME280;9907;42.676;26.348;2023-06-24T06:01:56;99787.88;;;28.66;40.25
19526;BME280;9907;42.676;26.348;2023-06-24T06:04:22;99786.16;;;28.60;40.97
19526;BME280;9907;42.676;26.348;2023-06-24T06:06:47;99781.81;;;28.64;41.07
19526;BME280;9907;42.676;26.348;2023-06-24T06:09:13;99782.84;;;28.80;41.95
19526;BME280;9907;42.676;26.348;2023-06-24T06:11:38;99781.06;;;28.90;41.94
19526;BME280;9907;42.676;26.348;2023-06-24T06:14:04;99777.31;;;29.23;41.91
19526;BME280;9907;42.676;26.348;2023-06-24T06:16:29;99783.75;;;29.12;41.92
19526;BME280;9907;42.676;26.348;2023-06-24T06:18:57;99788.72;;;29.15;41.10
19526;BME280;9907;42.676;26.348;2023-06-24T06:21:28;99780.38;;;29.27;39.94
19526;BME280;9907;42.676;26.348;2023-06-24T06:23:53;99768.34;;;29.28;40.33
19526;BME280;9907;42.676;26.348;2023-06-24T06:26:19;99773.75;;;29.49;40.02
19526;BME280;9907;42.676;26.348;2023-06-24T06:28:44;99777.06;;;29.52;39.88
19526;BME280;9907;42.676;26.348;2023-06-24T06:31:10;99780.91;;;29.02;39.57
19526;BME280;9907;42.676;26.348;2023-06-24T06:33:35;99782.94;;;29.12;39.57
19526;BME280;9907;42.676;26.348;2023-06-24T06:36:01;99781.50;;;29.04;40.09
19526;BME280;9907;42.676;26.348;2023-06-24T06:38:26;99772.28;;;29.37;39.38
19526;BME280;9907;42.676;26.348;2023-06-24T06:40:52;99784.25;;;29.31;39.30
19526;BME280;9907;42.676;26.348;2023-06-24T06:43:17;99776.69;;;29.16;39.77
19526;BME280;9907;42.676;26.348;2023-06-24T06:45:43;99789.66;;;29.26;39.50
19526;BME280;9907;42.676;26.348;2023-06-24T06:48:08;99778.97;;;29.51;39.07
19526;BME280;9907;42.676;26.348;2023-06-24T06:50:34;99777.03;;;29.83;39.00
19526;BME280;9907;42.676;26.348;2023-06-24T06:53:00;99771.84;;;30.19;38.37
19526;BME280;9907;42.676;26.348;2023-06-24T06:55:26;99775.88;;;30.11;36.61
19526;BME280;9907;42.676;26.348;2023-06-24T06:57:53;99777.06;;;30.25;37.97
19526;BME280;9907;42.676;26.348;2023-06-24T07:00:18;99777.75;;;30.06;37.56
19526;BME280;9907;42.676;26.348;2023-06-24T07:02:44;99767.94;;;30.10;37.78
19526;BME280;9907;42.676;26.348;2023-06-24T07:05:09;99776.66;;;30.49;37.34
19526;BME280;9907;42.676;26.348;2023-06-24T07:07:37;99770.75;;;30.25;37.22
19526;BME280;9907;42.676;26.348;2023-06-24T07:10:03;99774.56;;;30.19;36.56
19526;BME280;9907;42.676;26.348;2023-06-24T07:12:30;99778.34;;;30.13;37.35
19526;BME280;9907;42.676;26.348;2023-06-24T07:14:56;99778.16;;;30.24;36.66
19526;BME280;9907;42.676;26.348;2023-06-24T07:17:22;99772.22;;;30.37;36.06
19526;BME280;9907;42.676;26.348;2023-06-24T07:19:47;99770.41;;;30.58;35.95
19526;BME280;9907;42.676;26.348;2023-06-24T07:22:13;99767.72;;;30.73;35.49
19526;BME280;9907;42.676;26.348;2023-06-24T07:24:39;99764.00;;;31.10;36.08
19526;BME280;9907;42.676;26.348;2023-06-24T07:27:05;99763.47;;;31.38;34.61
19526;BME280;9907;42.676;26.348;2023-06-24T07:29:31;99772.22;;;31.05;34.38
19526;BME280;9907;42.676;26.348;2023-06-24T07:31:56;99753.72;;;30.70;34.82
19526;BME280;9907;42.676;26.348;2023-06-24T07:34:21;99760.44;;;31.09;34.52
19526;BME280;9907;42.676;26.348;2023-06-24T07:36:47;99756.63;;;31.20;34.08
19526;BME280;9907;42.676;26.348;2023-06-24T07:39:12;99753.84;;;31.05;33.70
19526;BME280;9907;42.676;26.348;2023-06-24T07:41:38;99747.03;;;31.18;33.94
19526;BME280;9907;42.676;26.348;2023-06-24T07:44:04;99748.84;;;30.82;34.19
19526;BME280;9907;42.676;26.348;2023-06-24T07:46:30;99741.53;;;31.23;33.62
19526;BME280;9907;42.676;26.348;2023-06-24T07:48:55;99744.56;;;31.36;33.01
19526;BME280;9907;42.676;26.348;2023-06-24T07:51:21;99738.84;;;31.58;33.32
19526;BME280;9907;42.676;26.348;2023-06-24T07:53:46;99742.13;;;31.65;32.56
19526;BME280;9907;42.676;26.348;2023-06-24T07:56:12;99748.69;;;31.74;32.43
19526;BME280;9907;42.676;26.348;2023-06-24T07:58:37;99747.00;;;32.04;32.93
19526;BME280;9907;42.676;26.348;2023-06-24T08:01:04;99753.34;;;32.09;32.75
19526;BME280;9907;42.676;26.348;2023-06-24T08:03:29;99753.03;;;32.01;32.04
19526;BME280;9907;42.676;26.348;2023-06-24T08:05:55;99757.50;;;31.61;32.58
19526;BME280;9907;42.676;26.348;2023-06-24T08:08:21;99760.19;;;31.26;32.93
19526;BME280;9907;42.676;26.348;2023-06-24T08:10:47;99754.19;;;31.69;32.88
19526;BME280;9907;42.676;26.348;2023-06-24T08:13:12;99757.22;;;31.53;32.87
19526;BME280;9907;42.676;26.348;2023-06-24T08:15:38;99752.78;;;31.82;33.33
19526;BME280;9907;42.676;26.348;2023-06-24T08:18:03;99753.59;;;32.13;33.15
19526;BME280;9907;42.676;26.348;2023-06-24T08:20:29;99761.00;;;31.97;33.00
19526;BME280;9907;42.676;26.348;2023-06-24T08:22:54;99748.16;;;31.72;33.10
19526;BME280;9907;42.676;26.348;2023-06-24T08:25:20;99745.91;;;32.10;32.98
19526;BME280;9907;42.676;26.348;2023-06-24T08:27:45;99742.66;;;31.67;33.24
19526;BME280;9907;42.676;26.348;2023-06-24T08:30:13;99738.53;;;31.80;33.42
19526;BME280;9907;42.676;26.348;2023-06-24T08:32:40;99746.50;;;31.81;34.51
19526;BME280;9907;42.676;26.348;2023-06-24T08:35:07;99749.53;;;31.70;34.31
19526;BME280;9907;42.676;26.348;2023-06-24T08:37:33;99753.59;;;32.13;34.24
19526;BME280;9907;42.676;26.348;2023-06-24T08:39:59;99751.44;;;31.44;34.24
19526;BME280;9907;42.676;26.348;2023-06-24T08:42:25;99742.94;;;31.76;34.42
19526;BME280;9907;42.676;26.348;2023-06-24T08:44:50;99749.22;;;31.86;34.25
19526;BME280;9907;42.676;26.348;2023-06-24T08:47:16;99752.25;;;31.90;34.25
19526;BME280;9907;42.676;26.348;2023-06-24T08:49:48;99740.69;;;32.18;34.58
19526;BME280;9907;42.676;26.348;2023-06-24T08:52:19;99751.13;;;32.16;34.26
19526;BME280;9907;42.676;26.348;2023-06-24T08:54:50;99754.72;;;31.92;34.73
19526;BME280;9907;42.676;26.348;2023-06-24T08:57:16;99751.16;;;32.11;33.84
19526;BME280;9907;42.676;26.348;2023-06-24T08:59:43;99746.47;;;32.07;34.02
19526;BME280;9907;42.676;26.348;2023-06-24T09:02:09;99740.69;;;32.13;34.00
19526;BME280;9907;42.676;26.348;2023-06-24T09:04:36;99742.03;;;32.26;33.71
19526;BME280;9907;42.676;26.348;2023-06-24T09:07:01;99737.78;;;32.64;34.29
19526;BME280;9907;42.676;26.348;2023-06-24T09:09:27;99745.88;;;32.89;33.65
19526;BME280;9907;42.676;26.348;2023-06-24T09:11:58;99732.53;;;32.67;33.12
19526;BME280;9907;42.676;26.348;2023-06-24T09:14:24;99741.44;;;32.44;33.66
19526;BME280;9907;42.676;26.348;2023-06-24T09:17:00;99733.03;;;32.74;32.92
19526;BME280;9907;42.676;26.348;2023-06-24T09:19:27;99732.53;;;32.67;33.28
19526;BME280;9907;42.676;26.348;2023-06-24T09:22:04;99735.25;;;32.72;33.36
19526;BME280;9907;42.676;26.348;2023-06-24T09:24:30;99724.75;;;32.85;32.92
19526;BME280;9907;42.676;26.348;2023-06-24T09:26:56;99725.84;;;32.84;32.18
19526;BME280;9907;42.676;26.348;2023-06-24T09:29:26;99719.91;;;33.10;33.23
19526;BME280;9907;42.676;26.348;2023-06-24T09:31:52;99726.47;;;33.53;33.10
19526;BME280;9907;42.676;26.348;2023-06-24T09:34:19;99723.00;;;33.43;32.20
19526;BME280;9907;42.676;26.348;2023-06-24T09:36:45;99728.59;;;33.66;31.17
19526;BME280;9907;42.676;26.348;2023-06-24T09:39:15;99721.00;;;33.82;31.43
19526;BME280;9907;42.676;26.348;2023-06-24T09:41:41;99718.94;;;33.69;32.02
19526;BME280;9907;42.676;26.348;2023-06-24T09:44:11;99715.19;;;33.21;31.62
19526;BME280;9907;42.676;26.348;2023-06-24T09:46:37;99720.75;;;32.57;32.62
19526;BME280;9907;42.676;26.348;2023-06-24T09:49:05;99711.13;;;32.64;33.07
19526;BME280;9907;42.676;26.348;2023-06-24T09:51:36;99709.63;;;32.23;33.33
19526;BME280;9907;42.676;26.348;2023-06-24T09:54:07;99706.47;;;32.60;33.36
19526;BME280;9907;42.676;26.348;2023-06-24T09:56:36;99708.41;;;32.59;32.80
19526;BME280;9907;42.676;26.348;2023-06-24T09:59:06;99713.88;;;32.54;33.13
19526;BME280;9907;42.676;26.348;2023-06-24T10:01:36;99711.84;;;32.06;33.88
19526;BME280;9907;42.676;26.348;2023-06-24T10:04:02;99704.63;;;32.40;34.33
19526;BME280;9907;42.676;26.348;2023-06-24T10:06:28;99710.56;;;32.57;33.75
19526;BME280;9907;42.676;26.348;2023-06-24T10:08:55;99708.00;;;32.02;33.61
19526;BME280;9907;42.676;26.348;2023-06-24T10:11:21;99711.31;;;32.14;34.29
19526;BME280;9907;42.676;26.348;2023-06-24T10:13:46;99701.53;;;32.52;34.72
19526;BME280;9907;42.676;26.348;2023-06-24T10:16:12;99704.63;;;32.30;34.06
19526;BME280;9907;42.676;26.348;2023-06-24T10:18:39;99695.31;;;32.31;34.88
19526;BME280;9907;42.676;26.348;2023-06-24T10:21:06;99693.38;;;32.37;34.62
19526;BME280;9907;42.676;26.348;2023-06-24T10:24:02;99691.66;;;32.46;34.40
19526;BME280;9907;42.676;26.348;2023-06-24T10:26:29;99700.53;;;32.27;34.79
19526;BME280;9907;42.676;26.348;2023-06-24T10:29:08;99694.28;;;31.97;34.32
19526;BME280;9907;42.676;26.348;2023-06-24T10:34:29;99677.13;;;32.40;35.64
19526;BME280;9907;42.676;26.348;2023-06-24T10:39:53;99661.28;;;32.22;35.39
19526;BME280;9907;42.676;26.348;2023-06-24T10:47:37;99660.84;;;31.84;34.50
19526;BME280;9907;42.676;26.348;2023-06-24T10:50:08;99649.59;;;31.71;34.62
19526;BME280;9907;42.676;26.348;2023-06-24T10:52:38;99637.19;;;31.94;35.04
19526;BME280;9907;42.676;26.348;2023-06-24T10:55:05;99647.69;;;31.71;35.86
19526;BME280;9907;42.676;26.348;2023-06-24T10:57:32;99646.59;;;31.67;36.29
19526;BME280;9907;42.676;26.348;2023-06-24T10:59:57;99638.69;;;31.56;35.93
19526;BME280;9907;42.676;26.348;2023-06-24T11:02:26;99634.56;;;31.48;36.54
19526;BME280;9907;42.676;26.348;2023-06-24T11:05:00;99632.94;;;31.22;37.10
19526;BME280;9907;42.676;26.348;2023-06-24T11:07:30;99634.56;;;31.23;36.18
19526;BME280;9907;42.676;26.348;2023-06-24T11:12:32;99633.47;;;31.14;35.48
19526;BME280;9907;42.676;26.348;2023-06-24T11:14:59;99625.78;;;31.01;35.14
19526;BME280;9907;42.676;26.348;2023-06-24T11:17:25;99613.19;;;31.15;34.73
19526;BME280;9907;42.676;26.348;2023-06-24T11:19:52;99616.72;;;31.15;35.07
19526;BME280;9907;42.676;26.348;2023-06-24T11:22:18;99607.72;;;31.15;35.11
19526;BME280;9907;42.676;26.348;2023-06-24T11:24:44;99614.84;;;31.11;34.72
19526;BME280;9907;42.676;26.348;2023-06-24T11:27:09;99610.97;;;30.91;34.03
19526;BME280;9907;42.676;26.348;2023-06-24T11:29:35;99607.13;;;30.77;33.39
19526;BME280;9907;42.676;26.348;2023-06-24T11:32:02;99596.19;;;31.03;33.63
19526;BME280;9907;42.676;26.348;2023-06-24T11:34:28;99600.84;;;31.02;33.98
19526;BME280;9907;42.676;26.348;2023-06-24T11:36:54;99592.31;;;30.93;34.33
19526;BME280;9907;42.676;26.348;2023-06-24T11:39:20;99595.34;;;30.77;35.07
19526;BME280;9907;42.676;26.348;2023-06-24T11:41:46;99591.75;;;30.71;34.60
19526;BME280;9907;42.676;26.348;2023-06-24T11:44:11;99585.19;;;30.87;34.73
19526;BME280;9907;42.676;26.348;2023-06-24T11:46:37;99584.66;;;30.85;34.99
19526;BME280;9907;42.676;26.348;2023-06-24T11:49:07;99587.94;;;30.77;34.86
19526;BME280;9907;42.676;26.348;2023-06-24T11:51:33;99582.44;;;30.72;33.48
19526;BME280;9907;42.676;26.348;2023-06-24T11:54:04;99573.13;;;30.73;32.23
19526;BME280;9907;42.676;26.348;2023-06-24T11:56:37;99571.25;;;31.04;32.45
19526;BME280;9907;42.676;26.348;2023-06-24T11:59:04;99564.09;;;31.08;31.83
19526;BME280;9907;42.676;26.348;2023-06-24T12:01:31;99562.47;;;31.02;31.57
19526;BME280;9907;42.676;26.348;2023-06-24T12:03:57;99566.28;;;31.01;31.83
19526;BME280;9907;42.676;26.348;2023-06-24T12:06:22;99564.38;;;31.02;31.36
19526;BME280;9907;42.676;26.348;2023-06-24T12:08:48;99561.06;;;31.05;32.32
19526;BME280;9907;42.676;26.348;2023-06-24T12:11:13;99557.25;;;30.85;33.47
19526;BME280;9907;42.676;26.348;2023-06-24T12:13:38;99553.13;;;30.83;33.54
19526;BME280;9907;42.676;26.348;2023-06-24T12:16:04;99544.09;;;30.92;33.32
19526;BME280;9907;42.676;26.348;2023-06-24T12:18:29;99546.81;;;30.82;33.22
19526;BME280;9907;42.676;26.348;2023-06-24T12:20:55;99536.94;;;30.97;33.58
19526;BME280;9907;42.676;26.348;2023-06-24T12:23:21;99545.72;;;31.14;34.31
19526;BME280;9907;42.676;26.348;2023-06-24T12:25:46;99530.34;;;31.13;33.41
19526;BME280;9907;42.676;26.348;2023-06-24T12:28:15;99532.03;;;31.04;33.69
19526;BME280;9907;42.676;26.348;2023-06-24T12:30:43;99534.19;;;31.22;34.40
19526;BME280;9907;42.676;26.348;2023-06-24T12:33:09;99523.78;;;31.19;33.64
19526;BME280;9907;42.676;26.348;2023-06-24T12:35:34;99525.41;;;31.25;33.80
19526;BME280;9907;42.676;26.348;2023-06-24T12:38:00;99522.69;;;31.05;33.70
19526;BME280;9907;42.676;26.348;2023-06-24T12:40:25;99525.16;;;31.06;34.11
19526;BME280;9907;42.676;26.348;2023-06-24T12:42:50;99513.94;;;31.03;33.60
19526;BME280;9907;42.676;26.348;2023-06-24T12:45:16;99512.84;;;30.88;33.90
19526;BME280;9907;42.676;26.348;2023-06-24T12:47:42;99512.28;;;30.91;33.51
19526;BME280;9907;42.676;26.348;2023-06-24T12:50:08;99510.09;;;30.88;33.75
19526;BME280;9907;42.676;26.348;2023-06-24T12:52:36;99509.00;;;30.84;33.75
19526;BME280;9907;42.676;26.348;2023-06-24T12:55:02;99504.88;;;30.87;34.08
19526;BME280;9907;42.676;26.348;2023-06-24T12:57:29;99502.69;;;30.84;34.05
19526;BME280;9907;42.676;26.348;2023-06-24T12:59:54;99509.28;;;30.93;34.11
19526;BME280;9907;42.676;26.348;2023-06-24T13:02:20;99504.06;;;31.07;33.85
19526;BME280;9907;42.676;26.348;2023-06-24T13:04:46;99490.63;;;31.05;33.99
19526;BME280;9907;42.676;26.348;2023-06-24T13:07:12;99499.94;;;31.14;33.88
19526;BME280;9907;42.676;26.348;2023-06-24T13:09:38;99498.31;;;31.03;33.92
19526;BME280;9907;42.676;26.348;2023-06-24T13:12:03;99489.53;;;31.06;34.15
19526;BME280;9907;42.676;26.348;2023-06-24T13:14:29;99496.34;;;31.09;34.16
19526;BME280;9907;42.676;26.348;2023-06-24T13:16:55;99495.84;;;31.02;34.05
19526;BME280;9907;42.676;26.348;2023-06-24T13:19:21;99481.03;;;30.92;33.64
19526;BME280;9907;42.676;26.348;2023-06-24T13:21:46;99482.13;;;31.02;34.07
19526;BME280;9907;42.676;26.348;2023-06-24T13:24:15;99475.81;;;30.96;34.02